Terminal Aerodrome Forecast
Issued by NWS

Home | Current Version | Previous Version | Text Only | Print | Product List | Glossary On
Versions: 1 2 3 4 5 6 7 8 9 10 11 12 13 14 15 16 17 18 19
000
FTUS41 KILN 241100
TAFLUK
TAF
KLUK 241130Z 2412/2512 10007KT P6SM OVC100
     FM241400 13008KT P6SM BKN100
     FM241900 14010KT P6SM BKN250
     FM250000 14003KT P6SM BKN250
     FM250700 16005KT P6SM -SHRA OVC060
     FM251000 20007KT P6SM VCSH BKN015 OVC045=

USA.gov is the U.S. government's official web portal to all federal, state and local government web resources and services.